Terminal Aerodrome Forecast
Issued by NWS Cleveland, OH

Home | Current Version | Previous Version | Graphics & Text | Print | Product List | Glossary Off
Versions: 1 2 3 4 5 6 7 8 9 10 11 12 13 14 15 16

000
FTUS41 KCLE 231535 AAA
TAFTOL
TAF AMD
KTOL 231535Z 2316/2412 31008KT P6SM BKN100
     FM232000 30012KT P6SM BKN050
     FM240300 29005KT P6SM SCT170=

USA.gov is the U.S. government's official web portal to all federal, state and local government web resources and services.